Time;durP1;ratioP1;P1;durP2;ratioP2;P2;SDS_P1;SDS_P2;PMS_P1;PMS_P2;Temp;Humidity;BMP_temperature;BMP_pressure;BME280_temperature;BME280_humidity;BME280_pressure;Samples;Min_cycle;Max_cycle;Signal;HPM_P1;HPM_P2
2023/08/02 00:01:47;;;;;;;12.40;3.38;;;;;;;-146.26;100.00;65085.03;5246761;28;20111;-72
2023/08/02 00:04:18;;;;;;;8.57;3.55;;;;;;;-146.26;100.00;65085.03;5247032;28;20346;-72
2023/08/02 00:06:48;;;;;;;11.27;3.45;;;;;;;-146.26;100.00;65085.03;5245993;28;20020;-72
2023/08/02 00:09:19;;;;;;;13.40;3.38;;;;;;;-146.26;100.00;65085.03;5245932;28;20494;-72
2023/08/02 00:11:50;;;;;;;9.75;3.05;;;;;;;-146.26;100.00;65085.03;5232804;28;20028;-72
2023/08/02 00:14:21;;;;;;;13.07;3.08;;;;;;;-146.26;100.00;65085.03;5246674;28;20103;-72
2023/08/02 00:16:52;;;;;;;19.70;4.80;;;;;;;-146.26;100.00;65085.03;5246248;28;20133;-72
2023/08/02 00:19:22;;;;;;;12.25;4.13;;;;;;;-146.26;100.00;65085.03;5246423;28;20581;-72
2023/08/02 00:21:52;;;;;;;13.13;4.07;;;;;;;-146.26;100.00;65085.03;5245832;28;20029;-73
2023/08/02 00:24:23;;;;;;;8.30;3.20;;;;;;;-146.26;100.00;65085.03;5246373;28;20382;-72
2023/08/02 00:26:53;;;;;;;12.82;3.95;;;;;;;-146.26;100.00;65085.03;5244341;28;20050;-72
2023/08/02 00:29:24;;;;;;;13.00;3.92;;;;;;;-146.26;100.00;65085.03;5246229;28;20021;-72
2023/08/02 00:31:54;;;;;;;13.13;3.92;;;;;;;-146.26;100.00;65085.03;5246708;28;20409;-72
2023/08/02 00:34:26;;;;;;;12.27;3.80;;;;;;;-146.26;100.00;65085.03;5245638;28;20021;-72
2023/08/02 00:36:57;;;;;;;13.20;4.57;;;;;;;-146.26;100.00;65085.03;5245788;28;20028;-72
2023/08/02 00:39:27;;;;;;;12.25;3.70;;;;;;;-146.26;100.00;65085.03;5245921;28;20024;-73
2023/08/02 00:41:58;;;;;;;8.75;3.45;;;;;;;-146.26;100.00;65085.03;5237458;28;20100;-72
2023/08/02 00:44:28;;;;;;;12.15;4.05;;;;;;;-146.26;100.00;65085.03;5241566;28;20097;-72
2023/08/02 00:46:58;;;;;;;9.43;4.25;;;;;;;-146.26;100.00;65085.03;5245193;28;20358;-72
2023/08/02 00:49:29;;;;;;;13.77;4.85;;;;;;;-146.26;100.00;65085.03;5245634;28;20039;-73
2023/08/02 00:51:59;;;;;;;10.57;3.20;;;;;;;-146.26;100.00;65085.03;5245946;28;20401;-72
2023/08/02 00:54:31;;;;;;;10.48;3.55;;;;;;;-146.26;100.00;65085.03;5245565;28;20025;-73
2023/08/02 00:57:02;;;;;;;12.93;3.88;;;;;;;-146.26;100.00;65085.03;5245100;28;20052;-72
2023/08/02 00:59:32;;;;;;;11.40;4.47;;;;;;;-146.26;100.00;65085.03;5245169;28;20129;-73
2023/08/02 01:02:04;;;;;;;13.10;3.65;;;;;;;-146.26;100.00;65085.03;5245700;28;20107;-73
2023/08/02 01:04:36;;;;;;;9.45;4.03;;;;;;;-146.26;100.00;65085.03;5246127;28;20482;-73
2023/08/02 01:07:16;;;;;;;13.05;4.22;;;;;;;-146.26;100.00;65085.03;5245736;28;20052;-72
2023/08/02 01:09:54;;;;;;;11.25;3.53;;;;;;;-146.26;100.00;65085.03;5245072;28;20038;-72
2023/08/02 01:12:27;;;;;;;10.85;3.78;;;;;;;-146.26;100.00;65085.03;5232337;28;20178;-72
2023/08/02 01:15:01;;;;;;;12.55;3.75;;;;;;;-146.26;100.00;65085.03;5245510;28;20029;-71
2023/08/02 01:17:32;;;;;;;12.88;3.35;;;;;;;-146.26;100.00;65085.03;5244863;28;20020;-72
2023/08/02 01:20:04;;;;;;;12.77;3.40;;;;;;;-146.26;100.00;65085.03;5244827;28;20370;-72
2023/08/02 01:22:34;;;;;;;10.80;3.30;;;;;;;-146.26;100.00;65085.03;5245360;28;20025;-72
2023/08/02 01:25:06;;;;;;;12.32;3.60;;;;;;;-146.26;100.00;65085.03;5245361;28;20036;-72
2023/08/02 01:27:57;;;;;;;8.40;3.28;;;;;;;-146.26;100.00;65085.03;5244866;28;20490;-72
2023/08/02 01:30:44;;;;;;;11.02;3.95;;;;;;;-146.26;100.00;65085.03;5237154;28;20483;-72
2023/08/02 01:33:15;;;;;;;8.15;3.30;;;;;;;-146.26;100.00;65085.03;5241521;28;20056;-72
2023/08/02 01:35:46;;;;;;;13.07;4.22;;;;;;;-146.26;100.00;65085.03;5244996;28;20112;-72
2023/08/02 01:38:17;;;;;;;9.65;3.92;;;;;;;-146.26;100.00;65085.03;5244823;28;20518;-73
2023/08/02 01:40:47;;;;;;;10.73;3.33;;;;;;;-146.26;100.00;65085.03;5244910;28;20024;-73
2023/08/02 01:43:18;;;;;;;10.40;3.53;;;;;;;-146.26;100.00;65085.03;5244648;28;20056;-73
2023/08/02 01:45:48;;;;;;;5.82;2.88;;;;;;;-146.26;100.00;65085.03;5244490;28;20040;-73
2023/08/02 01:48:19;;;;;;;10.85;3.70;;;;;;;-146.26;100.00;65085.03;5244815;28;20402;-72
2023/08/02 01:50:51;;;;;;;7.35;3.30;;;;;;;-146.26;100.00;65085.03;5244660;28;20070;-72
2023/08/02 01:53:22;;;;;;;10.93;3.85;;;;;;;-146.26;100.00;65085.03;5233944;28;20033;-72
2023/08/02 01:55:52;;;;;;;13.20;3.50;;;;;;;-146.26;100.00;65085.03;5241009;28;20024;-72
2023/08/02 01:58:23;;;;;;;10.10;3.63;;;;;;;-146.26;100.00;65085.03;5245043;28;20056;-72
2023/08/02 02:00:53;;;;;;;10.85;3.63;;;;;;;-146.26;100.00;65085.03;5244724;28;20024;-72
2023/08/02 02:03:24;;;;;;;14.00;4.05;;;;;;;-146.26;100.00;65085.03;5244565;28;20029;-72
2023/08/02 02:05:54;;;;;;;13.40;3.42;;;;;;;-146.26;100.00;65085.03;5243712;28;20066;-72
2023/08/02 02:08:25;;;;;;;13.07;3.47;;;;;;;-146.26;100.00;65085.03;5244356;28;20029;-72
2023/08/02 02:10:55;;;;;;;9.13;3.80;;;;;;;-146.26;100.00;65085.03;5236664;28;20021;-73
2023/08/02 02:13:26;;;;;;;9.52;3.70;;;;;;;-146.26;100.00;65085.03;5238816;28;20119;-72
2023/08/02 02:15:56;;;;;;;7.65;3.50;;;;;;;-146.26;100.00;65085.03;5244065;28;20028;-72
2023/08/02 02:18:27;;;;;;;17.80;4.22;;;;;;;-146.26;100.00;65085.03;5243529;28;20428;-72
2023/08/02 02:20:57;;;;;;;8.90;4.30;;;;;;;-146.26;100.00;65085.03;5244515;28;20031;-72
2023/08/02 02:23:28;;;;;;;9.38;3.92;;;;;;;-146.26;100.00;65085.03;5244369;28;20075;-71
2023/08/02 02:25:58;;;;;;;11.93;4.65;;;;;;;-146.26;100.00;65085.03;5244078;28;20159;-72
2023/08/02 02:28:29;;;;;;;12.18;4.97;;;;;;;-146.26;100.00;65085.03;5243959;28;20051;-72
2023/08/02 02:30:59;;;;;;;9.82;3.75;;;;;;;-146.26;100.00;65085.03;5243613;28;20070;-72
2023/08/02 02:33:30;;;;;;;7.32;4.28;;;;;;;-146.26;100.00;65085.03;5244072;28;20104;-72
2023/08/02 02:36:00;;;;;;;10.48;3.53;;;;;;;-146.26;100.00;65085.03;5243681;28;20517;-72
2023/08/02 02:38:31;;;;;;;11.75;4.25;;;;;;;-146.26;100.00;65085.03;5236793;28;20055;-72
2023/08/02 02:41:01;;;;;;;6.90;3.92;;;;;;;-146.26;100.00;65085.03;5237721;28;20029;-72
2023/08/02 02:43:32;;;;;;;7.90;4.00;;;;;;;-146.26;100.00;65085.03;5243683;28;20043;-72
2023/08/02 02:46:02;;;;;;;7.05;3.88;;;;;;;-146.26;100.00;65085.03;5243478;28;20268;-72
2023/08/02 02:48:33;;;;;;;10.65;3.92;;;;;;;-146.26;100.00;65085.03;5243895;28;20024;-73
2023/08/02 02:51:03;;;;;;;12.73;4.72;;;;;;;-146.26;100.00;65085.03;5230579;28;20559;-72
2023/08/02 02:53:34;;;;;;;14.23;3.97;;;;;;;-146.26;100.00;65085.03;5242903;28;20032;-73
2023/08/02 02:56:04;;;;;;;12.77;4.20;;;;;;;-146.26;100.00;65085.03;5243730;28;20024;-72
2023/08/02 02:58:35;;;;;;;7.97;3.97;;;;;;;-146.26;100.00;65085.03;5244167;28;20051;-72
2023/08/02 03:01:05;;;;;;;8.98;4.00;;;;;;;-146.26;100.00;65085.03;5244133;28;20021;-73
2023/08/02 03:03:36;;;;;;;10.27;4.18;;;;;;;-146.26;100.00;65085.03;5244060;28;20024;-73
2023/08/02 03:06:06;;;;;;;13.43;4.93;;;;;;;-146.26;100.00;65085.03;5246894;28;20028;-72
2023/08/02 03:08:36;;;;;;;14.55;4.40;;;;;;;-146.26;100.00;65085.03;5247503;28;20202;-72
2023/08/02 03:11:07;;;;;;;17.95;5.32;;;;;;;-146.26;100.00;65085.03;5239440;28;20273;-72
2023/08/02 03:13:37;;;;;;;15.30;5.30;;;;;;;-146.26;100.00;65085.03;5243560;28;20028;-72
2023/08/02 03:16:08;;;;;;;10.30;4.85;;;;;;;-146.26;100.00;65085.03;5247666;28;20035;-72
2023/08/02 03:18:38;;;;;;;10.55;4.95;;;;;;;-146.26;100.00;65085.03;5247666;28;20020;-73
2023/08/02 03:21:09;;;;;;;12.60;5.68;;;;;;;-146.26;100.00;65085.03;5247781;28;20025;-73
2023/08/02 03:23:41;;;;;;;12.23;4.88;;;;;;;-146.26;100.00;65085.03;5247974;28;20315;-73
2023/08/02 03:26:12;;;;;;;13.43;4.55;;;;;;;-146.26;100.00;65085.03;5247780;28;20024;-73
2023/08/02 03:28:42;;;;;;;18.02;5.32;;;;;;;-146.26;100.00;65085.03;5247647;28;20021;-73
2023/08/02 03:31:13;;;;;;;10.80;4.97;;;;;;;-146.26;100.00;65085.03;5234108;28;20111;-73
2023/08/02 03:33:43;;;;;;;14.20;5.93;;;;;;;-146.26;100.00;65085.03;5247941;28;20029;-72
2023/08/02 03:36:15;;;;;;;14.35;5.70;;;;;;;-146.26;100.00;65085.03;5245196;28;20024;-72
2023/08/02 03:38:46;;;;;;;11.20;5.45;;;;;;;-146.26;100.00;65085.03;5240893;28;20490;-72
2023/08/02 03:41:16;;;;;;;12.77;5.68;;;;;;;-146.26;100.00;65085.03;5247669;28;20021;-72
2023/08/02 03:43:47;;;;;;;17.55;6.20;;;;;;;-146.26;100.00;65085.03;5247887;28;20027;-72
2023/08/02 03:46:17;;;;;;;16.45;5.93;;;;;;;-146.26;100.00;65085.03;5246845;28;20017;-72
2023/08/02 03:48:48;;;;;;;15.95;5.95;;;;;;;-146.26;100.00;65085.03;5247222;28;20398;-72
2023/08/02 03:51:18;;;;;;;14.02;6.53;;;;;;;-146.26;100.00;65085.03;5247490;28;20035;-72
2023/08/02 03:53:49;;;;;;;13.05;6.18;;;;;;;-146.26;100.00;65085.03;5247349;28;20466;-72
2023/08/02 03:56:19;;;;;;;12.30;6.40;;;;;;;-146.26;100.00;65085.03;5233037;28;20501;-72
2023/08/02 03:58:50;;;;;;;16.67;6.03;;;;;;;-146.26;100.00;65085.03;5247109;28;20461;-72
2023/08/02 04:01:20;;;;;;;13.75;6.10;;;;;;;-146.26;100.00;65085.03;5247039;28;20466;-72
2023/08/02 04:03:50;;;;;;;20.77;6.72;;;;;;;-146.26;100.00;65085.03;5246990;28;20617;-71
2023/08/02 04:06:21;;;;;;;13.48;6.90;;;;;;;-146.26;100.00;65085.03;5246750;28;20024;-72
2023/08/02 04:08:52;;;;;;;14.63;6.45;;;;;;;-146.26;100.00;65085.03;5246543;28;20056;-73
2023/08/02 04:11:22;;;;;;;13.38;6.68;;;;;;;-146.26;100.00;65085.03;5236464;28;20119;-72
2023/08/02 04:13:53;;;;;;;13.27;6.10;;;;;;;-146.26;100.00;65085.03;5244447;28;20325;-72
2023/08/02 04:16:23;;;;;;;17.52;6.40;;;;;;;-146.26;100.00;65085.03;5245709;28;20161;-72
2023/08/02 04:18:54;;;;;;;16.52;6.55;;;;;;;-146.26;100.00;65085.03;5246726;28;20012;-72
2023/08/02 04:21:24;;;;;;;12.00;6.38;;;;;;;-146.26;100.00;65085.03;5246720;28;20443;-71
2023/08/02 04:23:54;;;;;;;13.90;6.85;;;;;;;-146.26;100.00;65085.03;5246800;28;20031;-72
2023/08/02 04:26:25;;;;;;;16.42;6.97;;;;;;;-146.26;100.00;65085.03;5245198;28;20028;-72
2023/08/02 04:28:56;;;;;;;15.48;6.57;;;;;;;-146.26;100.00;65085.03;5246413;28;20021;-71
2023/08/02 04:31:26;;;;;;;12.60;6.57;;;;;;;-146.26;100.00;65085.03;5233018;28;20032;-71
2023/08/02 04:33:57;;;;;;;15.88;6.70;;;;;;;-146.26;100.00;65085.03;5246328;28;20017;-72
2023/08/02 04:36:27;;;;;;;10.05;5.95;;;;;;;-146.26;100.00;65085.03;5245956;28;20031;-72
2023/08/02 04:38:59;;;;;;;12.30;6.38;;;;;;;-146.26;100.00;65085.03;5246687;28;20064;-72
2023/08/02 04:41:30;;;;;;;11.48;5.40;;;;;;;-146.26;100.00;65085.03;5246369;28;20520;-72
2023/08/02 04:44:00;;;;;;;12.82;6.40;;;;;;;-146.26;100.00;65085.03;5246472;28;20125;-72
2023/08/02 04:46:31;;;;;;;10.45;6.93;;;;;;;-146.26;100.00;65085.03;5245347;28;20162;-72
2023/08/02 04:49:01;;;;;;;14.75;6.53;;;;;;;-146.26;100.00;65085.03;5245949;28;20025;-72
2023/08/02 04:51:36;;;;;;;14.68;5.85;;;;;;;-146.26;100.00;65085.03;5237285;28;20023;-72
2023/08/02 04:54:06;;;;;;;16.50;5.55;;;;;;;-146.26;100.00;65085.03;5246038;28;20378;-72
2023/08/02 04:56:38;;;;;;;11.77;5.70;;;;;;;-146.26;100.00;65085.03;5245917;28;20028;-72
2023/08/02 04:59:10;;;;;;;16.83;6.55;;;;;;;-146.26;100.00;65085.03;5245865;28;20510;-73
2023/08/02 05:01:40;;;;;;;12.48;6.10;;;;;;;-146.26;100.00;65085.03;5246264;28;20060;-73
2023/08/02 05:04:11;;;;;;;10.57;5.82;;;;;;;-146.26;100.00;65085.03;5240894;28;20137;-72
2023/08/02 05:06:42;;;;;;;7.45;5.18;;;;;;;-146.26;100.00;65085.03;5244543;28;20016;-72
2023/08/02 05:09:13;;;;;;;11.40;6.05;;;;;;;-146.26;100.00;65085.03;5245561;28;20051;-72
2023/08/02 05:11:43;;;;;;;8.45;5.13;;;;;;;-146.26;100.00;65085.03;5232568;28;20024;-72
2023/08/02 05:14:14;;;;;;;12.27;6.15;;;;;;;-146.26;100.00;65085.03;5245795;28;20039;-72
2023/08/02 05:16:44;;;;;;;10.23;5.78;;;;;;;-146.26;100.00;65085.03;5230476;28;20021;-72
2023/08/02 05:19:15;;;;;;;12.13;6.53;;;;;;;-146.26;100.00;65085.03;5233658;28;20102;-72
2023/08/02 05:21:45;;;;;;;9.45;5.82;;;;;;;-146.26;100.00;65085.03;5245420;28;20024;-72
2023/08/02 05:24:16;;;;;;;12.63;5.53;;;;;;;-146.26;100.00;65085.03;5245488;28;20036;-72
2023/08/02 05:26:46;;;;;;;12.48;5.55;;;;;;;-146.26;100.00;65085.03;5244960;28;20028;-72
2023/08/02 05:29:17;;;;;;;12.73;5.97;;;;;;;-146.26;100.00;65085.03;5244549;28;20029;-72
2023/08/02 05:31:47;;;;;;;9.23;5.03;;;;;;;-146.26;100.00;65085.03;5245270;28;20029;-73
2023/08/02 05:34:18;;;;;;;10.50;4.97;;;;;;;-146.26;100.00;65085.03;5245060;28;20017;-73
2023/08/02 05:36:48;;;;;;;9.30;5.43;;;;;;;-146.26;100.00;65085.03;5244747;28;20113;-72
2023/08/02 05:39:18;;;;;;;8.82;4.70;;;;;;;-146.26;100.00;65085.03;5245229;28;20020;-72
2023/08/02 05:41:49;;;;;;;9.95;4.38;;;;;;;-146.26;100.00;65085.03;5245305;28;20515;-73
2023/08/02 05:44:20;;;;;;;9.60;4.00;;;;;;;-146.26;100.00;65085.03;5245060;28;20468;-72
2023/08/02 05:46:50;;;;;;;9.48;4.57;;;;;;;-146.26;100.00;65085.03;5244384;28;20032;-72
2023/08/02 05:49:21;;;;;;;9.48;4.90;;;;;;;-146.26;100.00;65085.03;5231589;28;20113;-72
2023/08/02 05:51:51;;;;;;;7.28;4.47;;;;;;;-146.26;100.00;65085.03;5245185;28;20040;-72
2023/08/02 05:54:21;;;;;;;6.55;4.32;;;;;;;-146.26;100.00;65085.03;5245064;28;20478;-72
2023/08/02 05:56:52;;;;;;;8.95;4.53;;;;;;;-146.26;100.00;65085.03;5245075;28;20041;-72
2023/08/02 05:59:22;;;;;;;7.47;4.18;;;;;;;-146.26;100.00;65085.03;5230700;28;20059;-72
2023/08/02 06:01:53;;;;;;;6.65;3.85;;;;;;;-146.26;100.00;65085.03;5245199;28;20020;-72
2023/08/02 06:04:23;;;;;;;11.40;4.75;;;;;;;-146.26;100.00;65085.03;5244882;28;20497;-73
2023/08/02 06:06:54;;;;;;;8.05;4.03;;;;;;;-146.26;100.00;65085.03;5244183;28;20074;-72
2023/08/02 06:09:25;;;;;;;4.65;3.28;;;;;;;-146.26;100.00;65085.03;5244760;28;20020;-73
2023/08/02 06:11:56;;;;;;;6.68;3.15;;;;;;;-146.26;100.00;65085.03;5230790;28;20040;-72
2023/08/02 06:14:26;;;;;;;6.05;3.05;;;;;;;-146.26;100.00;65085.03;5244657;28;20404;-72
2023/08/02 06:16:57;;;;;;;5.93;3.38;;;;;;;-146.26;100.00;65085.03;5243928;28;20031;-72
2023/08/02 06:19:27;;;;;;;6.00;3.30;;;;;;;-146.26;100.00;65085.03;5244804;28;20032;-72
2023/08/02 06:21:58;;;;;;;4.78;2.88;;;;;;;-146.26;100.00;65085.03;5244751;28;20021;-72
2023/08/02 06:24:28;;;;;;;5.47;3.03;;;;;;;-146.26;100.00;65085.03;5244264;28;20028;-72
2023/08/02 06:27:00;;;;;;;5.13;2.60;;;;;;;-146.26;100.00;65085.03;5235878;28;20031;-72
2023/08/02 06:29:31;;;;;;;5.18;2.72;;;;;;;-146.26;100.00;65085.03;5231748;28;20029;-72
2023/08/02 06:32:02;;;;;;;5.68;2.70;;;;;;;-146.26;100.00;65085.03;5243041;28;20032;-72
2023/08/02 06:34:32;;;;;;;5.82;2.70;;;;;;;-146.26;100.00;65085.03;5229630;28;20243;-72
2023/08/02 06:37:03;;;;;;;4.75;2.78;;;;;;;-146.26;100.00;65085.03;5242394;28;20461;-72
2023/08/02 06:39:33;;;;;;;4.70;2.28;;;;;;;-146.26;100.00;65085.03;5242675;28;20028;-72
2023/08/02 06:42:04;;;;;;;3.85;2.80;;;;;;;-146.26;100.00;65085.03;5233111;28;20107;-72
2023/08/02 06:44:35;;;;;;;5.40;2.35;;;;;;;-146.26;100.00;65085.03;5239723;28;20079;-72
2023/08/02 06:47:05;;;;;;;5.25;2.40;;;;;;;-146.26;100.00;65085.03;5242278;28;20059;-71
2023/08/02 06:49:36;;;;;;;4.82;2.22;;;;;;;-146.26;100.00;65085.03;5242670;28;20410;-72
2023/08/02 06:52:09;;;;;;;7.53;2.63;;;;;;;-146.26;100.00;65085.03;5263299;28;21206;-72
2023/08/02 06:54:39;;;;;;;3.65;1.92;;;;;;;-146.26;100.00;65085.03;5250559;28;20112;-73
2023/08/02 06:57:10;;;;;;;4.15;2.40;;;;;;;-146.26;100.00;65085.03;5262551;28;20544;-72
2023/08/02 06:59:40;;;;;;;4.53;2.10;;;;;;;-146.26;100.00;65085.03;5263188;28;20466;-73
2023/08/02 07:02:10;;;;;;;4.25;1.73;;;;;;;-146.26;100.00;65085.03;5263316;28;20629;-73
2023/08/02 07:04:41;;;;;;;4.20;1.52;;;;;;;-146.26;100.00;65085.03;5263606;28;20485;-73
2023/08/02 07:07:11;;;;;;;4.60;1.65;;;;;;;-146.26;100.00;65085.03;5244585;28;20550;-72
2023/08/02 07:09:42;;;;;;;3.45;1.52;;;;;;;-146.26;100.00;65085.03;5263510;28;20039;-72
2023/08/02 07:12:12;;;;;;;2.25;1.17;;;;;;;-146.26;100.00;65085.03;5249525;28;20024;-72
2023/08/02 07:14:43;;;;;;;3.00;1.30;;;;;;;-146.26;100.00;65085.03;5263407;28;20106;-72
2023/08/02 07:17:13;;;;;;;3.10;1.30;;;;;;;-146.26;100.00;65085.03;5262073;28;20024;-72
2023/08/02 07:19:44;;;;;;;3.10;1.25;;;;;;;-146.26;100.00;65085.03;5263127;28;20042;-72
2023/08/02 07:22:17;;;;;;;1.30;1.13;;;;;;;-146.26;100.00;65085.03;5263060;28;20031;-72
2023/08/02 07:24:47;;;;;;;2.90;1.20;;;;;;;-146.26;100.00;65085.03;5262590;28;20035;-72
2023/08/02 07:27:18;;;;;;;3.10;0.90;;;;;;;-146.26;100.00;65085.03;5254291;28;20395;-72
2023/08/02 07:29:51;;;;;;;3.55;0.93;;;;;;;-146.26;100.00;65085.03;5242348;28;20371;-73
2023/08/02 07:32:23;;;;;;;2.28;1.10;;;;;;;-146.26;100.00;65085.03;5234661;28;20473;-72
2023/08/02 07:34:54;;;;;;;1.35;0.70;;;;;;;-146.26;100.00;65085.03;5258958;28;20031;-73
2023/08/02 07:37:24;;;;;;;3.08;0.70;;;;;;;-146.26;100.00;65085.03;5252345;28;20028;-73
2023/08/02 07:39:55;;;;;;;0.88;0.60;;;;;;;-146.26;100.00;65085.03;5257631;28;20021;-71
2023/08/02 07:42:26;;;;;;;0.82;0.60;;;;;;;-146.26;100.00;65085.03;5254526;28;20066;-73
2023/08/02 07:45:15;;;;;;;1.05;0.60;;;;;;;-146.26;100.00;65085.03;5262774;28;20036;-73
2023/08/02 07:47:45;;;;;;;1.58;0.60;;;;;;;-146.26;100.00;65085.03;5261434;28;20039;-74
2023/08/02 07:50:16;;;;;;;2.40;0.68;;;;;;;-146.26;100.00;65085.03;5262771;28;20032;-74
2023/08/02 07:52:48;;;;;;;3.85;0.40;;;;;;;-146.26;100.00;65085.03;5261349;28;20074;-74
2023/08/02 07:55:19;;;;;;;0.65;0.30;;;;;;;-146.26;100.00;65085.03;5257438;28;20136;-73
2023/08/02 07:57:50;;;;;;;0.20;0.20;;;;;;;-146.26;100.00;65085.03;5266211;28;20418;-74
2023/08/02 08:00:20;;;;;;;0.85;0.43;;;;;;;-146.26;100.00;65085.03;5266573;28;20031;-73
2023/08/02 08:02:51;;;;;;;1.20;0.40;;;;;;;-146.26;100.00;65085.03;5266780;28;20023;-73
2023/08/02 08:05:21;;;;;;;3.22;0.40;;;;;;;-146.26;100.00;65085.03;5266403;28;20106;-73
2023/08/02 08:07:52;;;;;;;2.65;0.20;;;;;;;-146.26;100.00;65085.03;5257772;28;20027;-73
2023/08/02 08:10:22;;;;;;;0.50;0.50;;;;;;;-146.26;100.00;65085.03;5260290;28;20070;-73
2023/08/02 08:12:53;;;;;;;1.55;0.32;;;;;;;-146.26;100.00;65085.03;5265853;28;20032;-74
2023/08/02 08:15:23;;;;;;;2.75;0.30;;;;;;;-146.26;100.00;65085.03;5247841;28;20063;-73
2023/08/02 08:17:54;;;;;;;1.35;0.25;;;;;;;-146.26;100.00;65085.03;5265908;28;20060;-74
2023/08/02 08:20:24;;;;;;;0.88;0.30;;;;;;;-146.26;100.00;65085.03;5265987;28;20043;-73
2023/08/02 08:22:55;;;;;;;1.65;0.30;;;;;;;-146.26;100.00;65085.03;5265534;28;20058;-73
2023/08/02 08:25:25;;;;;;;2.45;0.50;;;;;;;-146.26;100.00;65085.03;5265755;28;20681;-73
2023/08/02 08:27:56;;;;;;;0.35;0.35;;;;;;;-146.26;100.00;65085.03;5252819;28;20062;-74
2023/08/02 08:30:27;;;;;;;0.75;0.50;;;;;;;-146.26;100.00;65085.03;5252251;28;20039;-73
2023/08/02 08:32:57;;;;;;;1.15;0.30;;;;;;;-146.26;100.00;65085.03;5252395;28;20470;-73
2023/08/02 08:35:28;;;;;;;0.60;0.50;;;;;;;-146.26;100.00;65085.03;5265659;28;20020;-73
2023/08/02 08:37:58;;;;;;;0.22;0.22;;;;;;;-146.26;100.00;65085.03;5265412;28;20453;-73
2023/08/02 08:40:29;;;;;;;0.93;0.30;;;;;;;-146.26;100.00;65085.03;5265905;28;20047;-73
2023/08/02 08:43:01;;;;;;;2.03;0.20;;;;;;;-146.26;100.00;65085.03;5247833;28;20138;-73
2023/08/02 08:45:32;;;;;;;2.17;0.50;;;;;;;-146.26;100.00;65085.03;5254425;28;20032;-73
2023/08/02 08:48:04;;;;;;;3.35;0.35;;;;;;;-146.26;100.00;65085.03;5257225;28;20090;-73
2023/08/02 08:50:35;;;;;;;4.15;0.30;;;;;;;-146.26;100.00;65085.03;5257459;28;20103;-73
2023/08/02 08:53:09;;;;;;;1.40;0.43;;;;;;;-146.26;100.00;65085.03;5258889;28;20111;-73
2023/08/02 08:55:40;;;;;;;0.40;0.30;;;;;;;-146.26;100.00;65085.03;5239391;28;20497;-73
2023/08/02 08:58:11;;;;;;;0.52;0.50;;;;;;;-146.26;100.00;65085.03;5253098;28;20043;-73
2023/08/02 09:00:43;;;;;;;3.15;0.50;;;;;;;-146.26;100.00;65085.03;5264914;28;20381;-73
2023/08/02 09:03:14;;;;;;;0.60;0.60;;;;;;;-146.26;100.00;65085.03;5265252;28;20499;-74
2023/08/02 09:05:45;;;;;;;1.67;0.70;;;;;;;-146.26;100.00;65085.03;5264789;28;20028;-73
2023/08/02 09:08:16;;;;;;;0.50;0.50;;;;;;;-146.26;100.00;65085.03;5253226;28;20035;-73
2023/08/02 09:10:47;;;;;;;0.80;0.70;;;;;;;-146.26;100.00;65085.03;5257649;28;20025;-73
2023/08/02 09:13:35;;;;;;;0.60;0.60;;;;;;;-146.26;100.00;65085.03;5256751;28;20019;-73
2023/08/02 09:16:10;;;;;;;0.82;0.65;;;;;;;-146.26;100.00;65085.03;5252727;28;20020;-73
2023/08/02 09:18:44;;;;;;;0.85;0.82;;;;;;;-146.26;100.00;65085.03;5245486;28;20466;-73
2023/08/02 09:21:22;;;;;;;1.47;0.90;;;;;;;-146.26;100.00;65085.03;5240338;28;20035;-74
2023/08/02 09:25:28;;;;;;;1.10;0.88;;;;;;;22.13;100.00;99029.84;5259538;28;20236;-74
2023/08/02 09:27:59;;;;;;;1.00;0.82;;;;;;;22.51;100.00;99027.31;5259987;28;20048;-74
2023/08/02 09:30:32;;;;;;;5.82;1.00;;;;;;;22.88;100.00;99026.63;5252864;28;20024;-75
2023/08/02 09:33:06;;;;;;;4.25;0.93;;;;;;;23.19;100.00;99032.56;5250099;28;20234;-75
2023/08/02 09:35:51;;;;;;;1.48;0.70;;;;;;;23.27;100.00;99032.72;5247908;28;20431;-75
2023/08/02 09:38:21;;;;;;;0.80;0.80;;;;;;;23.31;100.00;99041.16;5258198;28;20023;-75
2023/08/02 09:40:52;;;;;;;1.35;0.90;;;;;;;23.57;100.00;99021.66;5260005;28;20028;-75
2023/08/02 09:43:23;;;;;;;3.22;0.90;;;;;;;23.28;100.00;99028.06;5257182;28;20028;-75
2023/08/02 09:45:55;;;;;;;1.65;0.93;;;;;;;23.17;100.00;99023.84;5245843;28;20066;-75
2023/08/02 09:48:35;;;;;;;2.58;0.93;;;;;;;22.93;100.00;99029.31;5242214;28;20017;-75
2023/08/02 09:51:08;;;;;;;1.02;0.90;;;;;;;22.56;100.00;99036.25;5255922;28;20060;-75
2023/08/02 09:53:40;;;;;;;1.05;0.70;;;;;;;22.08;100.00;99021.66;5260004;28;20081;-75
2023/08/02 09:56:11;;;;;;;0.82;0.82;;;;;;;22.06;100.00;99010.22;5261493;28;20036;-74
2023/08/02 09:58:44;;;;;;;2.65;1.00;;;;;;;22.01;100.00;99007.53;5259740;28;20233;-74
2023/08/02 10:01:15;;;;;;;0.88;0.88;;;;;;;21.87;100.00;99010.91;5259374;28;20020;-75
2023/08/02 10:03:51;;;;;;;1.15;0.88;;;;;;;21.57;100.00;99022.84;5259602;28;20047;-75
2023/08/02 10:06:47;;;;;;;1.10;1.00;;;;;;;21.63;100.00;99023.63;5259224;28;20035;-75
2023/08/02 10:09:21;;;;;;;2.45;0.90;;;;;;;21.58;100.00;99029.13;5258741;28;20616;-75
2023/08/02 10:11:57;;;;;;;1.40;1.27;;;;;;;21.58;100.00;99037.28;5254114;28;20115;-75
2023/08/02 10:14:30;;;;;;;1.30;1.20;;;;;;;21.44;100.00;99037.94;5248248;28;20374;-76
2023/08/02 10:17:02;;;;;;;1.45;1.25;;;;;;;21.41;100.00;99043.13;5258609;28;20032;-76
2023/08/02 10:19:35;;;;;;;3.15;1.40;;;;;;;21.58;100.00;99037.28;5259595;28;20354;-76
2023/08/02 10:22:06;;;;;;;2.45;1.25;;;;;;;21.43;100.00;99043.66;5258782;28;20366;-76
2023/08/02 10:24:37;;;;;;;2.35;1.20;;;;;;;21.28;100.00;99060.06;5273862;28;20035;-75
2023/08/02 10:27:08;;;;;;;2.35;0.98;;;;;;;21.02;100.00;99073.00;5279784;28;20027;-75
2023/08/02 10:29:40;;;;;;;0.93;0.88;;;;;;;20.88;100.00;99050.94;5271561;28;20481;-75
2023/08/02 10:32:27;;;;;;;1.80;0.95;;;;;;;20.98;100.00;99039.19;5270672;28;20058;-74
2023/08/02 10:34:59;;;;;;;5.10;1.38;;;;;;;21.06;100.00;99034.00;5255511;28;20059;-75
2023/08/02 10:37:51;;;;;;;7.30;1.60;;;;;;;21.38;100.00;99032.78;5247142;28;20024;-75
2023/08/02 10:40:22;;;;;;;4.93;1.70;;;;;;;21.80;100.00;99032.25;5244880;28;20078;-75
2023/08/02 10:43:05;;;;;;;5.95;1.40;;;;;;;22.25;100.00;99013.91;5261061;28;20378;-74
2023/08/02 10:45:35;;;;;;;7.05;1.60;;;;;;;22.48;100.00;99025.94;5265387;28;20020;-75
2023/08/02 10:48:26;;;;;;;9.20;1.60;;;;;;;22.59;100.00;99023.94;5261262;28;20032;-75
2023/08/02 10:50:58;;;;;;;6.07;1.85;;;;;;;22.70;100.00;99020.00;5261936;28;20449;-75
2023/08/02 10:53:29;;;;;;;8.00;1.73;;;;;;;22.79;100.00;99017.44;5256296;28;20025;-75
2023/08/02 10:56:20;;;;;;;9.13;1.75;;;;;;;23.07;100.00;99021.22;5245622;28;20461;-74
2023/08/02 10:58:52;;;;;;;5.35;1.67;;;;;;;23.33;100.00;99017.06;5258610;28;20042;-75
2023/08/02 11:01:23;;;;;;;4.40;1.77;;;;;;;23.48;100.00;99005.06;5253055;28;20123;-74
2023/08/02 11:03:53;;;;;;;5.72;1.58;;;;;;;23.57;100.00;99017.00;5253020;28;20100;-74
2023/08/02 11:06:26;;;;;;;5.95;1.67;;;;;;;23.44;100.00;99029.47;5255601;28;20032;-74
2023/08/02 11:08:56;;;;;;;7.28;1.50;;;;;;;23.34;100.00;99004.19;5261722;28;20367;-75
2023/08/02 11:11:29;;;;;;;7.43;1.88;;;;;;;23.16;100.00;99012.09;5257862;28;20062;-74
2023/08/02 11:14:00;;;;;;;10.23;2.40;;;;;;;23.12;100.00;99021.16;5259562;28;20092;-75
2023/08/02 11:16:40;;;;;;;8.68;1.75;;;;;;;23.14;100.00;99008.00;5258242;28;20245;-74
2023/08/02 11:19:10;;;;;;;11.98;2.00;;;;;;;23.00;100.00;99000.53;5266203;28;20016;-75
2023/08/02 11:21:52;;;;;;;8.82;2.17;;;;;;;22.88;100.00;99011.06;5272181;28;20030;-74
2023/08/02 11:24:23;;;;;;;11.30;2.38;;;;;;;23.01;100.00;99004.09;5255420;28;20024;-75
2023/08/02 11:26:55;;;;;;;8.15;2.28;;;;;;;22.98;100.00;99000.00;5259484;28;20225;-75
2023/08/02 11:29:26;;;;;;;11.63;2.28;;;;;;;22.94;100.00;98998.97;5254218;28;20024;-74
2023/08/02 11:32:02;;;;;;;9.00;1.90;;;;;;;22.90;100.00;99008.06;5264643;28;20024;-74